sensor_id;sensor_type;location;lat;lon;timestamp;P1;durP1;ratioP1;P2;durP2;ratioP2
24273;SDS011;12392;42.678;23.380;2023-07-20T00:01:14;13.35;;;2.35;;
24273;SDS011;12392;42.678;23.380;2023-07-20T00:03:40;8.88;;;2.65;;
24273;SDS011;12392;42.678;23.380;2023-07-20T00:06:05;10.18;;;2.53;;
24273;SDS011;12392;42.678;23.380;2023-07-20T00:08:31;11.10;;;2.58;;
24273;SDS011;12392;42.678;23.380;2023-07-20T00:10:57;6.72;;;2.60;;
24273;SDS011;12392;42.678;23.380;2023-07-20T00:13:23;6.15;;;2.50;;
24273;SDS011;12392;42.678;23.380;2023-07-20T00:15:49;6.93;;;2.60;;
24273;SDS011;12392;42.678;23.380;2023-07-20T00:18:15;10.48;;;2.47;;
24273;SDS011;12392;42.678;23.380;2023-07-20T00:20:41;13.35;;;3.05;;
24273;SDS011;12392;42.678;23.380;2023-07-20T00:23:07;8.70;;;2.67;;
24273;SDS011;12392;42.678;23.380;2023-07-20T00:25:33;7.97;;;2.35;;
24273;SDS011;12392;42.678;23.380;2023-07-20T00:27:58;8.40;;;2.80;;
24273;SDS011;12392;42.678;23.380;2023-07-20T00:30:24;7.57;;;2.70;;
24273;SDS011;12392;42.678;23.380;2023-07-20T00:32:50;7.47;;;2.40;;
24273;SDS011;12392;42.678;23.380;2023-07-20T00:35:16;9.48;;;2.70;;
24273;SDS011;12392;42.678;23.380;2023-07-20T00:37:41;5.25;;;2.10;;
24273;SDS011;12392;42.678;23.380;2023-07-20T00:40:07;9.43;;;3.03;;
24273;SDS011;12392;42.678;23.380;2023-07-20T00:42:33;9.40;;;2.83;;
24273;SDS011;12392;42.678;23.380;2023-07-20T00:44:59;10.68;;;3.33;;
24273;SDS011;12392;42.678;23.380;2023-07-20T00:47:25;13.32;;;3.63;;
24273;SDS011;12392;42.678;23.380;2023-07-20T00:49:52;8.90;;;3.35;;
24273;SDS011;12392;42.678;23.380;2023-07-20T00:52:18;13.80;;;3.38;;
24273;SDS011;12392;42.678;23.380;2023-07-20T00:54:45;11.30;;;2.72;;
24273;SDS011;12392;42.678;23.380;2023-07-20T00:57:11;10.88;;;2.70;;
24273;SDS011;12392;42.678;23.380;2023-07-20T00:59:40;9.07;;;3.35;;
24273;SDS011;12392;42.678;23.380;2023-07-20T01:02:05;8.07;;;3.15;;
24273;SDS011;12392;42.678;23.380;2023-07-20T01:04:31;9.02;;;2.50;;
24273;SDS011;12392;42.678;23.380;2023-07-20T01:06:59;18.63;;;3.10;;
24273;SDS011;12392;42.678;23.380;2023-07-20T01:10:08;8.40;;;2.78;;
24273;SDS011;12392;42.678;23.380;2023-07-20T01:12:42;10.50;;;3.10;;
24273;SDS011;12392;42.678;23.380;2023-07-20T01:15:09;5.20;;;2.53;;
24273;SDS011;12392;42.678;23.380;2023-07-20T01:17:35;10.07;;;2.78;;
24273;SDS011;12392;42.678;23.380;2023-07-20T01:20:01;11.27;;;2.53;;
24273;SDS011;12392;42.678;23.380;2023-07-20T01:30:39;10.02;;;2.80;;
24273;SDS011;12392;42.678;23.380;2023-07-20T01:33:09;10.38;;;2.40;;
24273;SDS011;12392;42.678;23.380;2023-07-20T01:35:37;11.40;;;2.83;;
24273;SDS011;12392;42.678;23.380;2023-07-20T01:38:03;17.45;;;3.25;;
24273;SDS011;12392;42.678;23.380;2023-07-20T01:40:29;11.88;;;3.20;;
24273;SDS011;12392;42.678;23.380;2023-07-20T01:42:54;17.25;;;3.08;;
24273;SDS011;12392;42.678;23.380;2023-07-20T01:45:20;8.73;;;3.10;;
24273;SDS011;12392;42.678;23.380;2023-07-20T01:47:46;13.98;;;3.50;;
24273;SDS011;12392;42.678;23.380;2023-07-20T01:50:11;12.43;;;3.13;;
24273;SDS011;12392;42.678;23.380;2023-07-20T01:52:37;12.05;;;3.42;;
24273;SDS011;12392;42.678;23.380;2023-07-20T01:55:03;8.55;;;2.80;;
24273;SDS011;12392;42.678;23.380;2023-07-20T01:57:31;9.25;;;2.92;;
24273;SDS011;12392;42.678;23.380;2023-07-20T01:59:57;10.02;;;2.80;;
24273;SDS011;12392;42.678;23.380;2023-07-20T02:02:23;9.73;;;3.28;;
24273;SDS011;12392;42.678;23.380;2023-07-20T02:04:51;10.13;;;2.92;;
24273;SDS011;12392;42.678;23.380;2023-07-20T02:07:16;9.80;;;3.10;;
24273;SDS011;12392;42.678;23.380;2023-07-20T02:09:42;10.93;;;3.03;;
24273;SDS011;12392;42.678;23.380;2023-07-20T02:12:08;12.93;;;3.03;;
24273;SDS011;12392;42.678;23.380;2023-07-20T02:14:34;11.25;;;2.95;;
24273;SDS011;12392;42.678;23.380;2023-07-20T02:16:59;8.63;;;3.58;;
24273;SDS011;12392;42.678;23.380;2023-07-20T02:19:26;8.15;;;2.70;;
24273;SDS011;12392;42.678;23.380;2023-07-20T02:21:52;10.85;;;3.20;;
24273;SDS011;12392;42.678;23.380;2023-07-20T02:24:18;11.38;;;2.92;;
24273;SDS011;12392;42.678;23.380;2023-07-20T02:26:43;7.65;;;3.17;;
24273;SDS011;12392;42.678;23.380;2023-07-20T02:29:09;12.35;;;3.30;;
24273;SDS011;12392;42.678;23.380;2023-07-20T02:31:37;9.82;;;3.20;;
24273;SDS011;12392;42.678;23.380;2023-07-20T02:34:04;13.40;;;3.00;;
24273;SDS011;12392;42.678;23.380;2023-07-20T02:36:34;10.75;;;3.30;;
24273;SDS011;12392;42.678;23.380;2023-07-20T02:38:59;10.35;;;2.88;;
24273;SDS011;12392;42.678;23.380;2023-07-20T02:41:27;8.95;;;3.10;;
24273;SDS011;12392;42.678;23.380;2023-07-20T02:43:53;12.82;;;3.58;;
24273;SDS011;12392;42.678;23.380;2023-07-20T02:46:18;9.32;;;2.63;;
24273;SDS011;12392;42.678;23.380;2023-07-20T02:48:44;7.15;;;3.25;;
24273;SDS011;12392;42.678;23.380;2023-07-20T02:51:09;6.88;;;3.20;;
24273;SDS011;12392;42.678;23.380;2023-07-20T02:53:36;8.05;;;3.28;;
24273;SDS011;12392;42.678;23.380;2023-07-20T02:56:02;18.45;;;3.90;;
24273;SDS011;12392;42.678;23.380;2023-07-20T02:58:27;8.70;;;3.10;;
24273;SDS011;12392;42.678;23.380;2023-07-20T03:00:53;10.77;;;3.33;;
24273;SDS011;12392;42.678;23.380;2023-07-20T03:03:19;14.45;;;3.88;;
24273;SDS011;12392;42.678;23.380;2023-07-20T03:05:45;8.95;;;3.22;;
24273;SDS011;12392;42.678;23.380;2023-07-20T03:08:10;13.65;;;3.10;;
24273;SDS011;12392;42.678;23.380;2023-07-20T03:10:39;9.52;;;3.60;;
24273;SDS011;12392;42.678;23.380;2023-07-20T03:13:05;14.15;;;3.08;;
24273;SDS011;12392;42.678;23.380;2023-07-20T03:15:31;8.60;;;3.03;;
24273;SDS011;12392;42.678;23.380;2023-07-20T03:17:57;10.35;;;3.35;;
24273;SDS011;12392;42.678;23.380;2023-07-20T03:20:23;11.05;;;3.25;;
24273;SDS011;12392;42.678;23.380;2023-07-20T03:22:49;15.07;;;3.70;;
24273;SDS011;12392;42.678;23.380;2023-07-20T03:25:15;19.42;;;3.90;;
24273;SDS011;12392;42.678;23.380;2023-07-20T03:27:41;14.27;;;3.63;;
24273;SDS011;12392;42.678;23.380;2023-07-20T03:30:06;13.95;;;3.63;;
24273;SDS011;12392;42.678;23.380;2023-07-20T03:32:34;9.32;;;3.42;;
24273;SDS011;12392;42.678;23.380;2023-07-20T03:35:00;9.20;;;3.38;;
24273;SDS011;12392;42.678;23.380;2023-07-20T03:37:26;24.35;;;7.57;;
24273;SDS011;12392;42.678;23.380;2023-07-20T03:39:52;15.43;;;5.68;;
24273;SDS011;12392;42.678;23.380;2023-07-20T03:42:18;16.05;;;5.97;;
24273;SDS011;12392;42.678;23.380;2023-07-20T03:44:43;18.13;;;5.68;;
24273;SDS011;12392;42.678;23.380;2023-07-20T03:47:09;22.33;;;5.75;;
24273;SDS011;12392;42.678;23.380;2023-07-20T03:49:35;19.65;;;5.65;;
24273;SDS011;12392;42.678;23.380;2023-07-20T03:52:01;14.30;;;4.60;;
24273;SDS011;12392;42.678;23.380;2023-07-20T03:54:30;18.40;;;4.65;;
24273;SDS011;12392;42.678;23.380;2023-07-20T03:56:55;12.85;;;4.90;;
24273;SDS011;12392;42.678;23.380;2023-07-20T03:59:21;15.90;;;4.63;;
24273;SDS011;12392;42.678;23.380;2023-07-20T04:01:47;16.77;;;4.53;;
24273;SDS011;12392;42.678;23.380;2023-07-20T04:04:13;14.43;;;5.00;;
24273;SDS011;12392;42.678;23.380;2023-07-20T04:06:40;11.20;;;4.18;;
24273;SDS011;12392;42.678;23.380;2023-07-20T04:09:09;12.20;;;4.38;;
24273;SDS011;12392;42.678;23.380;2023-07-20T04:11:36;16.38;;;4.13;;
24273;SDS011;12392;42.678;23.380;2023-07-20T04:14:01;15.82;;;4.35;;
24273;SDS011;12392;42.678;23.380;2023-07-20T04:16:27;11.90;;;4.10;;
24273;SDS011;12392;42.678;23.380;2023-07-20T04:18:54;18.77;;;4.03;;
24273;SDS011;12392;42.678;23.380;2023-07-20T04:21:21;13.18;;;3.13;;
24273;SDS011;12392;42.678;23.380;2023-07-20T04:23:47;9.20;;;3.35;;
24273;SDS011;12392;42.678;23.380;2023-07-20T04:26:12;9.52;;;3.33;;
24273;SDS011;12392;42.678;23.380;2023-07-20T04:28:39;17.33;;;3.90;;
24273;SDS011;12392;42.678;23.380;2023-07-20T04:31:11;12.68;;;3.72;;
24273;SDS011;12392;42.678;23.380;2023-07-20T04:33:37;9.52;;;3.15;;
24273;SDS011;12392;42.678;23.380;2023-07-20T04:36:03;24.52;;;4.10;;
24273;SDS011;12392;42.678;23.380;2023-07-20T04:38:29;11.10;;;3.33;;
24273;SDS011;12392;42.678;23.380;2023-07-20T04:40:55;16.83;;;3.80;;
24273;SDS011;12392;42.678;23.380;2023-07-20T04:43:21;9.63;;;3.75;;
24273;SDS011;12392;42.678;23.380;2023-07-20T04:45:46;11.45;;;3.88;;
24273;SDS011;12392;42.678;23.380;2023-07-20T04:48:13;9.30;;;3.92;;
24273;SDS011;12392;42.678;23.380;2023-07-20T04:50:40;13.25;;;3.95;;
24273;SDS011;12392;42.678;23.380;2023-07-20T04:53:06;10.02;;;3.75;;
24273;SDS011;12392;42.678;23.380;2023-07-20T04:55:35;12.98;;;3.88;;
24273;SDS011;12392;42.678;23.380;2023-07-20T04:58:01;9.68;;;3.53;;
24273;SDS011;12392;42.678;23.380;2023-07-20T05:00:28;7.07;;;3.53;;
24273;SDS011;12392;42.678;23.380;2023-07-20T05:02:55;11.18;;;4.13;;
24273;SDS011;12392;42.678;23.380;2023-07-20T05:05:21;10.88;;;4.10;;
24273;SDS011;12392;42.678;23.380;2023-07-20T05:07:47;12.20;;;3.65;;
24273;SDS011;12392;42.678;23.380;2023-07-20T05:10:13;21.52;;;4.28;;
24273;SDS011;12392;42.678;23.380;2023-07-20T05:12:38;12.50;;;4.72;;
24273;SDS011;12392;42.678;23.380;2023-07-20T05:15:04;11.77;;;3.95;;
24273;SDS011;12392;42.678;23.380;2023-07-20T05:17:30;8.18;;;3.67;;
24273;SDS011;12392;42.678;23.380;2023-07-20T05:19:56;16.23;;;4.07;;
24273;SDS011;12392;42.678;23.380;2023-07-20T05:22:21;14.48;;;3.75;;
24273;SDS011;12392;42.678;23.380;2023-07-20T05:24:47;17.45;;;4.40;;
24273;SDS011;12392;42.678;23.380;2023-07-20T05:27:13;8.25;;;3.50;;
24273;SDS011;12392;42.678;23.380;2023-07-20T05:29:43;9.35;;;3.58;;
24273;SDS011;12392;42.678;23.380;2023-07-20T05:32:09;10.02;;;3.28;;
24273;SDS011;12392;42.678;23.380;2023-07-20T05:34:35;11.25;;;3.13;;
24273;SDS011;12392;42.678;23.380;2023-07-20T05:37:00;8.90;;;3.20;;
24273;SDS011;12392;42.678;23.380;2023-07-20T05:39:26;8.93;;;3.60;;
24273;SDS011;12392;42.678;23.380;2023-07-20T05:41:52;12.00;;;3.60;;
24273;SDS011;12392;42.678;23.380;2023-07-20T05:44:18;13.07;;;3.42;;
24273;SDS011;12392;42.678;23.380;2023-07-20T05:46:43;11.77;;;3.40;;
24273;SDS011;12392;42.678;23.380;2023-07-20T05:49:09;15.50;;;3.63;;
24273;SDS011;12392;42.678;23.380;2023-07-20T05:51:35;13.18;;;4.47;;
24273;SDS011;12392;42.678;23.380;2023-07-20T05:54:01;15.07;;;4.82;;
24273;SDS011;12392;42.678;23.380;2023-07-20T05:56:27;11.68;;;3.45;;
24273;SDS011;12392;42.678;23.380;2023-07-20T05:58:52;12.60;;;3.97;;
24273;SDS011;12392;42.678;23.380;2023-07-20T06:01:18;14.55;;;4.18;;
24273;SDS011;12392;42.678;23.380;2023-07-20T06:03:44;12.60;;;3.63;;
24273;SDS011;12392;42.678;23.380;2023-07-20T06:06:10;13.18;;;3.33;;
24273;SDS011;12392;42.678;23.380;2023-07-20T06:08:37;13.02;;;4.15;;
24273;SDS011;12392;42.678;23.380;2023-07-20T06:11:02;12.65;;;4.35;;
24273;SDS011;12392;42.678;23.380;2023-07-20T06:13:28;12.75;;;4.07;;
24273;SDS011;12392;42.678;23.380;2023-07-20T06:15:54;14.82;;;4.10;;
24273;SDS011;12392;42.678;23.380;2023-07-20T06:18:22;12.63;;;4.03;;
24273;SDS011;12392;42.678;23.380;2023-07-20T06:20:51;12.00;;;5.03;;
24273;SDS011;12392;42.678;23.380;2023-07-20T06:23:18;10.52;;;4.90;;
24273;SDS011;12392;42.678;23.380;2023-07-20T06:25:44;16.92;;;5.07;;
24273;SDS011;12392;42.678;23.380;2023-07-20T06:28:10;20.75;;;5.00;;
24273;SDS011;12392;42.678;23.380;2023-07-20T06:30:35;15.90;;;5.47;;
24273;SDS011;12392;42.678;23.380;2023-07-20T06:33:01;12.18;;;5.72;;
24273;SDS011;12392;42.678;23.380;2023-07-20T06:35:27;22.58;;;6.47;;
24273;SDS011;12392;42.678;23.380;2023-07-20T06:37:53;14.65;;;5.03;;
24273;SDS011;12392;42.678;23.380;2023-07-20T06:40:18;15.30;;;5.03;;
24273;SDS011;12392;42.678;23.380;2023-07-20T06:42:44;14.02;;;4.97;;
24273;SDS011;12392;42.678;23.380;2023-07-20T06:45:10;13.65;;;4.28;;
24273;SDS011;12392;42.678;23.380;2023-07-20T06:47:38;21.52;;;4.88;;
24273;SDS011;12392;42.678;23.380;2023-07-20T06:50:04;16.40;;;4.20;;
24273;SDS011;12392;42.678;23.380;2023-07-20T06:52:33;10.20;;;4.30;;
24273;SDS011;12392;42.678;23.380;2023-07-20T06:54:59;20.30;;;4.88;;
24273;SDS011;12392;42.678;23.380;2023-07-20T06:57:25;12.60;;;4.60;;
24273;SDS011;12392;42.678;23.380;2023-07-20T06:59:50;15.10;;;4.93;;
24273;SDS011;12392;42.678;23.380;2023-07-20T07:02:16;16.00;;;4.80;;
24273;SDS011;12392;42.678;23.380;2023-07-20T07:04:42;17.25;;;4.53;;
24273;SDS011;12392;42.678;23.380;2023-07-20T07:07:08;15.25;;;4.65;;
24273;SDS011;12392;42.678;23.380;2023-07-20T07:09:34;15.70;;;5.13;;
24273;SDS011;12392;42.678;23.380;2023-07-20T07:12:00;17.58;;;4.88;;
24273;SDS011;12392;42.678;23.380;2023-07-20T07:14:26;12.55;;;5.30;;
24273;SDS011;12392;42.678;23.380;2023-07-20T07:16:52;15.38;;;5.32;;
24273;SDS011;12392;42.678;23.380;2023-07-20T07:19:17;17.80;;;4.95;;
24273;SDS011;12392;42.678;23.380;2023-07-20T07:21:43;16.80;;;5.32;;
24273;SDS011;12392;42.678;23.380;2023-07-20T07:24:09;16.95;;;5.00;;
24273;SDS011;12392;42.678;23.380;2023-07-20T07:26:35;21.67;;;4.63;;
24273;SDS011;12392;42.678;23.380;2023-07-20T07:29:02;12.05;;;4.47;;
24273;SDS011;12392;42.678;23.380;2023-07-20T07:31:28;14.68;;;4.93;;
24273;SDS011;12392;42.678;23.380;2023-07-20T07:33:55;21.40;;;5.50;;
24273;SDS011;12392;42.678;23.380;2023-07-20T07:36:21;11.55;;;4.97;;
24273;SDS011;12392;42.678;23.380;2023-07-20T07:38:48;14.57;;;4.80;;
24273;SDS011;12392;42.678;23.380;2023-07-20T07:41:13;15.95;;;4.88;;
24273;SDS011;12392;42.678;23.380;2023-07-20T07:43:39;10.35;;;4.50;;
24273;SDS011;12392;42.678;23.380;2023-07-20T07:46:05;16.40;;;4.82;;
24273;SDS011;12392;42.678;23.380;2023-07-20T07:48:30;17.35;;;4.78;;
24273;SDS011;12392;42.678;23.380;2023-07-20T07:50:56;16.27;;;4.60;;
24273;SDS011;12392;42.678;23.380;2023-07-20T07:53:22;18.58;;;4.80;;
24273;SDS011;12392;42.678;23.380;2023-07-20T07:55:49;13.48;;;4.13;;
24273;SDS011;12392;42.678;23.380;2023-07-20T07:58:14;14.63;;;4.00;;
24273;SDS011;12392;42.678;23.380;2023-07-20T08:00:40;17.40;;;4.60;;
24273;SDS011;12392;42.678;23.380;2023-07-20T08:03:06;14.60;;;4.80;;
24273;SDS011;12392;42.678;23.380;2023-07-20T08:05:33;15.88;;;5.10;;
24273;SDS011;12392;42.678;23.380;2023-07-20T08:08:00;15.20;;;4.20;;
24273;SDS011;12392;42.678;23.380;2023-07-20T08:10:26;15.25;;;4.72;;
24273;SDS011;12392;42.678;23.380;2023-07-20T08:12:52;13.88;;;5.05;;
24273;SDS011;12392;42.678;23.380;2023-07-20T08:15:17;15.43;;;4.90;;
24273;SDS011;12392;42.678;23.380;2023-07-20T08:17:43;16.25;;;4.88;;
24273;SDS011;12392;42.678;23.380;2023-07-20T08:20:09;17.50;;;4.50;;
24273;SDS011;12392;42.678;23.380;2023-07-20T08:22:40;16.10;;;4.10;;
24273;SDS011;12392;42.678;23.380;2023-07-20T08:25:06;13.00;;;4.28;;
24273;SDS011;12392;42.678;23.380;2023-07-20T08:27:32;11.93;;;4.07;;
24273;SDS011;12392;42.678;23.380;2023-07-20T08:29:58;20.52;;;4.30;;
24273;SDS011;12392;42.678;23.380;2023-07-20T08:32:24;19.15;;;4.55;;
24273;SDS011;12392;42.678;23.380;2023-07-20T08:34:50;19.38;;;4.53;;
24273;SDS011;12392;42.678;23.380;2023-07-20T08:37:16;22.65;;;4.38;;
24273;SDS011;12392;42.678;23.380;2023-07-20T08:39:42;16.55;;;4.10;;
24273;SDS011;12392;42.678;23.380;2023-07-20T08:42:07;17.55;;;3.80;;
24273;SDS011;12392;42.678;23.380;2023-07-20T08:44:35;11.63;;;3.38;;
24273;SDS011;12392;42.678;23.380;2023-07-20T08:47:02;15.18;;;3.83;;
24273;SDS011;12392;42.678;23.380;2023-07-20T08:49:32;13.93;;;3.45;;
24273;SDS011;12392;42.678;23.380;2023-07-20T08:51:58;18.08;;;4.15;;
24273;SDS011;12392;42.678;23.380;2023-07-20T08:54:26;19.38;;;4.07;;
24273;SDS011;12392;42.678;23.380;2023-07-20T08:56:54;10.70;;;3.42;;
24273;SDS011;12392;42.678;23.380;2023-07-20T08:59:22;19.00;;;3.38;;
24273;SDS011;12392;42.678;23.380;2023-07-20T09:01:48;14.07;;;3.13;;
24273;SDS011;12392;42.678;23.380;2023-07-20T09:04:15;15.88;;;3.45;;
24273;SDS011;12392;42.678;23.380;2023-07-20T09:06:41;11.13;;;2.97;;
24273;SDS011;12392;42.678;23.380;2023-07-20T09:09:07;15.48;;;3.15;;
24273;SDS011;12392;42.678;23.380;2023-07-20T09:11:33;11.85;;;3.65;;
24273;SDS011;12392;42.678;23.380;2023-07-20T09:14:05;16.20;;;3.40;;
24273;SDS011;12392;42.678;23.380;2023-07-20T09:16:31;8.15;;;3.05;;
24273;SDS011;12392;42.678;23.380;2023-07-20T09:18:57;14.68;;;3.10;;
24273;SDS011;12392;42.678;23.380;2023-07-20T09:21:23;16.35;;;3.60;;
24273;SDS011;12392;42.678;23.380;2023-07-20T09:23:49;13.82;;;3.20;;
24273;SDS011;12392;42.678;23.380;2023-07-20T09:26:18;15.40;;;3.63;;
24273;SDS011;12392;42.678;23.380;2023-07-20T09:28:51;10.43;;;3.55;;
24273;SDS011;12392;42.678;23.380;2023-07-20T09:31:18;10.50;;;3.20;;
24273;SDS011;12392;42.678;23.380;2023-07-20T09:33:45;13.30;;;3.42;;
24273;SDS011;12392;42.678;23.380;2023-07-20T09:36:11;8.73;;;3.33;;
24273;SDS011;12392;42.678;23.380;2023-07-20T09:38:37;13.30;;;3.55;;
24273;SDS011;12392;42.678;23.380;2023-07-20T09:41:06;13.85;;;3.78;;
24273;SDS011;12392;42.678;23.380;2023-07-20T09:43:34;15.60;;;3.80;;
24273;SDS011;12392;42.678;23.380;2023-07-20T09:46:00;12.75;;;3.95;;
24273;SDS011;12392;42.678;23.380;2023-07-20T09:48:25;9.82;;;3.38;;
24273;SDS011;12392;42.678;23.380;2023-07-20T09:50:52;7.35;;;3.30;;
24273;SDS011;12392;42.678;23.380;2023-07-20T09:53:19;10.77;;;3.13;;
24273;SDS011;12392;42.678;23.380;2023-07-20T09:55:51;10.15;;;3.35;;
24273;SDS011;12392;42.678;23.380;2023-07-20T09:58:17;13.88;;;3.60;;
24273;SDS011;12392;42.678;23.380;2023-07-20T10:00:44;7.00;;;3.17;;
24273;SDS011;12392;42.678;23.380;2023-07-20T10:03:19;11.23;;;2.88;;
24273;SDS011;12392;42.678;23.380;2023-07-20T10:05:54;8.20;;;3.00;;
24273;SDS011;12392;42.678;23.380;2023-07-20T10:08:23;11.55;;;3.30;;
24273;SDS011;12392;42.678;23.380;2023-07-20T10:10:50;12.15;;;3.30;;
24273;SDS011;12392;42.678;23.380;2023-07-20T10:13:37;17.48;;;3.40;;
24273;SDS011;12392;42.678;23.380;2023-07-20T10:16:12;14.82;;;3.58;;
24273;SDS011;12392;42.678;23.380;2023-07-20T10:18:50;12.27;;;3.15;;
24273;SDS011;12392;42.678;23.380;2023-07-20T10:21:29;15.90;;;3.80;;
24273;SDS011;12392;42.678;23.380;2023-07-20T10:23:57;11.30;;;3.47;;
24273;SDS011;12392;42.678;23.380;2023-07-20T10:26:25;10.88;;;3.15;;
24273;SDS011;12392;42.678;23.380;2023-07-20T10:28:51;15.65;;;2.70;;
24273;SDS011;12392;42.678;23.380;2023-07-20T10:31:17;9.82;;;2.92;;
24273;SDS011;12392;42.678;23.380;2023-07-20T10:33:43;12.38;;;2.88;;
24273;SDS011;12392;42.678;23.380;2023-07-20T10:36:09;6.22;;;2.83;;
24273;SDS011;12392;42.678;23.380;2023-07-20T10:41:18;12.00;;;3.28;;
24273;SDS011;12392;42.678;23.380;2023-07-20T10:43:45;8.05;;;3.33;;
24273;SDS011;12392;42.678;23.380;2023-07-20T10:46:11;12.00;;;2.88;;
24273;SDS011;12392;42.678;23.380;2023-07-20T10:51:27;12.10;;;2.90;;
24273;SDS011;12392;42.678;23.380;2023-07-20T10:53:54;14.05;;;3.72;;
24273;SDS011;12392;42.678;23.380;2023-07-20T10:56:24;16.10;;;3.05;;
24273;SDS011;12392;42.678;23.380;2023-07-20T10:58:55;14.45;;;3.03;;
24273;SDS011;12392;42.678;23.380;2023-07-20T11:01:28;8.02;;;4.05;;
24273;SDS011;12392;42.678;23.380;2023-07-20T11:03:58;12.93;;;3.00;;
24273;SDS011;12392;42.678;23.380;2023-07-20T11:09:04;15.25;;;3.85;;
24273;SDS011;12392;42.678;23.380;2023-07-20T11:11:39;10.15;;;3.15;;
24273;SDS011;12392;42.678;23.380;2023-07-20T11:14:10;13.57;;;3.20;;
24273;SDS011;12392;42.678;23.380;2023-07-20T11:16:43;9.45;;;3.33;;
24273;SDS011;12392;42.678;23.380;2023-07-20T11:19:28;8.82;;;3.00;;
24273;SDS011;12392;42.678;23.380;2023-07-20T11:21:54;7.07;;;2.80;;
24273;SDS011;12392;42.678;23.380;2023-07-20T11:24:21;17.40;;;3.40;;
24273;SDS011;12392;42.678;23.380;2023-07-20T11:26:48;6.30;;;3.22;;
24273;SDS011;12392;42.678;23.380;2023-07-20T11:29:17;7.82;;;3.83;;
24273;SDS011;12392;42.678;23.380;2023-07-20T11:31:48;8.52;;;3.58;;
24273;SDS011;12392;42.678;23.380;2023-07-20T11:34:14;12.13;;;4.05;;
24273;SDS011;12392;42.678;23.380;2023-07-20T11:36:41;9.82;;;3.45;;
24273;SDS011;12392;42.678;23.380;2023-07-20T11:39:12;9.10;;;4.20;;
24273;SDS011;12392;42.678;23.380;2023-07-20T11:41:38;11.45;;;3.45;;
24273;SDS011;12392;42.678;23.380;2023-07-20T11:44:09;10.77;;;4.25;;
24273;SDS011;12392;42.678;23.380;2023-07-20T11:46:40;13.07;;;4.43;;
24273;SDS011;12392;42.678;23.380;2023-07-20T11:49:07;10.85;;;4.07;;
24273;SDS011;12392;42.678;23.380;2023-07-20T11:51:34;10.57;;;4.32;;
24273;SDS011;12392;42.678;23.380;2023-07-20T11:54:01;10.48;;;4.55;;
24273;SDS011;12392;42.678;23.380;2023-07-20T11:56:27;11.38;;;4.22;;
24273;SDS011;12392;42.678;23.380;2023-07-20T11:58:59;8.50;;;4.25;;
24273;SDS011;12392;42.678;23.380;2023-07-20T12:01:27;11.73;;;4.95;;
24273;SDS011;12392;42.678;23.380;2023-07-20T12:04:03;10.68;;;4.65;;
24273;SDS011;12392;42.678;23.380;2023-07-20T12:06:29;13.35;;;4.90;;
24273;SDS011;12392;42.678;23.380;2023-07-20T12:08:56;13.13;;;4.25;;
24273;SDS011;12392;42.678;23.380;2023-07-20T12:11:35;9.43;;;4.15;;
24273;SDS011;12392;42.678;23.380;2023-07-20T12:14:08;11.73;;;4.10;;
24273;SDS011;12392;42.678;23.380;2023-07-20T12:16:35;8.63;;;4.32;;
24273;SDS011;12392;42.678;23.380;2023-07-20T12:19:04;9.10;;;3.88;;
24273;SDS011;12392;42.678;23.380;2023-07-20T12:21:31;8.80;;;4.38;;
24273;SDS011;12392;42.678;23.380;2023-07-20T12:23:59;8.73;;;4.35;;
24273;SDS011;12392;42.678;23.380;2023-07-20T12:26:25;10.68;;;3.75;;
24273;SDS011;12392;42.678;23.380;2023-07-20T12:28:52;10.15;;;3.90;;
24273;SDS011;12392;42.678;23.380;2023-07-20T12:31:17;10.90;;;3.20;;
24273;SDS011;12392;42.678;23.380;2023-07-20T12:33:43;11.18;;;3.90;;
24273;SDS011;12392;42.678;23.380;2023-07-20T12:36:09;11.65;;;3.17;;
24273;SDS011;12392;42.678;23.380;2023-07-20T12:38:35;10.63;;;3.70;;
24273;SDS011;12392;42.678;23.380;2023-07-20T12:41:01;9.80;;;3.50;;
24273;SDS011;12392;42.678;23.380;2023-07-20T12:43:27;13.23;;;3.60;;
24273;SDS011;12392;42.678;23.380;2023-07-20T12:45:54;7.90;;;3.40;;
24273;SDS011;12392;42.678;23.380;2023-07-20T12:48:20;15.30;;;3.63;;
24273;SDS011;12392;42.678;23.380;2023-07-20T12:50:46;12.25;;;4.03;;
24273;SDS011;12392;42.678;23.380;2023-07-20T12:53:12;11.90;;;3.88;;
24273;SDS011;12392;42.678;23.380;2023-07-20T12:55:38;6.43;;;3.30;;
24273;SDS011;12392;42.678;23.380;2023-07-20T12:58:07;13.38;;;3.55;;
24273;SDS011;12392;42.678;23.380;2023-07-20T13:00:33;13.52;;;3.65;;
24273;SDS011;12392;42.678;23.380;2023-07-20T13:02:58;15.68;;;3.63;;
24273;SDS011;12392;42.678;23.380;2023-07-20T13:05:24;10.05;;;3.30;;
24273;SDS011;12392;42.678;23.380;2023-07-20T13:07:50;10.95;;;3.13;;
24273;SDS011;12392;42.678;23.380;2023-07-20T13:10:16;13.20;;;3.40;;
24273;SDS011;12392;42.678;23.380;2023-07-20T13:12:42;9.30;;;3.10;;
24273;SDS011;12392;42.678;23.380;2023-07-20T13:15:08;11.32;;;3.17;;
24273;SDS011;12392;42.678;23.380;2023-07-20T13:17:35;10.75;;;3.40;;
24273;SDS011;12392;42.678;23.380;2023-07-20T13:20:02;8.93;;;3.28;;
24273;SDS011;12392;42.678;23.380;2023-07-20T13:22:29;10.57;;;3.05;;
24273;SDS011;12392;42.678;23.380;2023-07-20T13:24:56;15.10;;;3.60;;
24273;SDS011;12392;42.678;23.380;2023-07-20T13:27:21;11.40;;;3.63;;
24273;SDS011;12392;42.678;23.380;2023-07-20T13:29:47;16.67;;;3.70;;
24273;SDS011;12392;42.678;23.380;2023-07-20T13:32:13;10.18;;;3.28;;
24273;SDS011;12392;42.678;23.380;2023-07-20T13:34:40;17.15;;;3.17;;
24273;SDS011;12392;42.678;23.380;2023-07-20T13:37:06;15.43;;;3.67;;
24273;SDS011;12392;42.678;23.380;2023-07-20T13:39:31;11.02;;;3.17;;
24273;SDS011;12392;42.678;23.380;2023-07-20T13:41:57;11.27;;;3.28;;
24273;SDS011;12392;42.678;23.380;2023-07-20T13:44:23;13.75;;;3.65;;
24273;SDS011;12392;42.678;23.380;2023-07-20T13:46:49;16.10;;;3.45;;
24273;SDS011;12392;42.678;23.380;2023-07-20T13:49:15;13.27;;;3.75;;
24273;SDS011;12392;42.678;23.380;2023-07-20T13:51:41;11.07;;;4.47;;
24273;SDS011;12392;42.678;23.380;2023-07-20T13:54:07;11.80;;;3.50;;
24273;SDS011;12392;42.678;23.380;2023-07-20T13:56:33;13.93;;;3.22;;
24273;SDS011;12392;42.678;23.380;2023-07-20T13:58:59;12.70;;;3.50;;
24273;SDS011;12392;42.678;23.380;2023-07-20T14:01:24;16.85;;;3.25;;
24273;SDS011;12392;42.678;23.380;2023-07-20T14:03:50;11.77;;;3.00;;
24273;SDS011;12392;42.678;23.380;2023-07-20T14:06:16;11.07;;;3.35;;
24273;SDS011;12392;42.678;23.380;2023-07-20T14:08:42;11.35;;;3.13;;
24273;SDS011;12392;42.678;23.380;2023-07-20T14:11:11;12.75;;;3.80;;
24273;SDS011;12392;42.678;23.380;2023-07-20T14:13:37;11.68;;;2.85;;
24273;SDS011;12392;42.678;23.380;2023-07-20T14:16:03;14.68;;;3.63;;
24273;SDS011;12392;42.678;23.380;2023-07-20T14:18:29;8.65;;;2.83;;
24273;SDS011;12392;42.678;23.380;2023-07-20T14:20:55;13.73;;;3.30;;
24273;SDS011;12392;42.678;23.380;2023-07-20T14:23:21;13.80;;;4.68;;
24273;SDS011;12392;42.678;23.380;2023-07-20T14:25:47;12.13;;;3.60;;
24273;SDS011;12392;42.678;23.380;2023-07-20T14:28:13;10.35;;;3.15;;
24273;SDS011;12392;42.678;23.380;2023-07-20T14:30:39;25.35;;;4.28;;
24273;SDS011;12392;42.678;23.380;2023-07-20T14:33:05;14.63;;;3.63;;
24273;SDS011;12392;42.678;23.380;2023-07-20T14:35:30;16.77;;;3.38;;
24273;SDS011;12392;42.678;23.380;2023-07-20T14:37:56;10.55;;;2.88;;